createdAt,value
2018-11-06T00:00:30.220Z,70.40
2018-11-06T00:03:05.382Z,71.97
2018-11-06T00:05:34.242Z,68.90
2018-11-06T00:08:03.083Z,67.47
2018-11-06T00:10:31.958Z,69.13
2018-11-06T00:13:00.799Z,67.37
2018-11-06T00:15:29.799Z,62.93
2018-11-06T00:17:58.628Z,63.20
2018-11-06T00:20:27.856Z,69.80
2018-11-06T00:22:56.713Z,80.30
2018-11-06T00:25:25.687Z,69.60
2018-11-06T00:27:54.534Z,68.57
2018-11-06T00:30:23.362Z,79.03
2018-11-06T00:32:52.274Z,72.03
2018-11-06T00:35:21.135Z,76.37
2018-11-06T00:37:49.983Z,67.67
2018-11-06T00:40:18.842Z,62.83
2018-11-06T00:42:47.727Z,68.37
2018-11-06T00:45:16.980Z,69.90
2018-11-06T00:47:45.822Z,65.37
2018-11-06T00:50:14.788Z,65.80
2018-11-06T00:52:44.235Z,63.33
2018-11-06T00:55:13.095Z,62.83
2018-11-06T00:57:43.038Z,59.93
2018-11-06T01:00:15.577Z,72.40
2018-11-06T01:02:44.538Z,71.40
2018-11-06T01:05:14.204Z,68.87
2018-11-06T01:07:43.878Z,71.10
2018-11-06T01:10:12.748Z,64.47
2018-11-06T01:12:41.675Z,72.43
2018-11-06T01:15:12.942Z,69.00
2018-11-06T01:17:53.898Z,69.67
2018-11-06T01:20:22.761Z,74.37
2018-11-06T01:22:51.623Z,65.07
2018-11-06T01:25:20.570Z,62.03
2018-11-06T01:27:49.407Z,69.53
2018-11-06T01:30:19.407Z,65.87
2018-11-06T01:32:48.361Z,72.43
2018-11-06T01:35:17.486Z,71.33
2018-11-06T01:37:46.675Z,63.00
2018-11-06T01:40:16.711Z,76.67
2018-11-06T01:42:46.095Z,59.23
2018-11-06T01:45:16.055Z,60.00
2018-11-06T01:47:44.946Z,76.77
2018-11-06T01:50:14.875Z,63.00
2018-11-06T01:52:44.845Z,59.03
2018-11-06T01:55:13.719Z,60.20
2018-11-06T01:57:42.589Z,60.37
2018-11-06T02:00:21.769Z,61.80
2018-11-06T02:02:53.495Z,70.80
2018-11-06T02:06:25.726Z,62.83
2018-11-06T02:08:54.582Z,65.27
2018-11-06T02:11:23.410Z,56.03
2018-11-06T02:13:52.291Z,61.10
2018-11-06T02:16:21.294Z,68.13
2018-11-06T02:18:50.142Z,58.50
2018-11-06T02:21:18.970Z,65.23
2018-11-06T02:23:47.899Z,61.23
2018-11-06T02:26:16.782Z,75.50
2018-11-06T02:28:45.672Z,58.70
2018-11-06T02:31:14.643Z,63.20
2018-11-06T02:33:43.528Z,63.70
2018-11-06T02:36:12.444Z,63.03
2018-11-06T02:38:41.308Z,58.77
2018-11-06T02:41:10.191Z,58.57
2018-11-06T02:43:39.017Z,57.60
2018-11-06T02:46:07.920Z,63.60
2018-11-06T02:48:37.022Z,59.20
2018-11-06T02:51:06.203Z,53.87
2018-11-06T02:53:35.106Z,59.37
2018-11-06T02:56:04.262Z,52.47
2018-11-06T02:58:33.079Z,68.20
2018-11-06T03:01:02.190Z,65.50
2018-11-06T03:03:35.543Z,49.33
2018-11-06T03:06:05.032Z,56.80
2018-11-06T03:08:33.891Z,51.13
2018-11-06T03:11:02.740Z,60.60
2018-11-06T03:13:31.667Z,53.70
2018-11-06T03:16:00.533Z,58.33
2018-11-06T03:18:29.399Z,56.50
2018-11-06T03:20:58.219Z,49.47
2018-11-06T03:23:27.090Z,55.90
2018-11-06T03:25:56.011Z,52.00
2018-11-06T03:28:24.871Z,57.20
2018-11-06T03:30:53.716Z,58.63
2018-11-06T03:33:22.579Z,57.00
2018-11-06T03:35:51.474Z,59.00
2018-11-06T03:38:20.484Z,69.23
2018-11-06T03:40:49.348Z,49.10
2018-11-06T03:43:18.230Z,58.47
2018-11-06T03:45:47.147Z,51.50
2018-11-06T03:48:16.010Z,64.80
2018-11-06T03:50:44.879Z,59.23
2018-11-06T03:53:13.715Z,51.60
2018-11-06T03:55:42.643Z,52.60
2018-11-06T03:58:11.540Z,44.50
2018-11-06T04:00:40.373Z,50.97
2018-11-06T04:03:09.228Z,46.90
2018-11-06T04:05:38.163Z,58.37
2018-11-06T04:08:07.033Z,52.37
2018-11-06T04:10:35.913Z,45.90
2018-11-06T04:13:04.812Z,58.07
2018-11-06T04:15:33.762Z,61.87
2018-11-06T04:18:02.643Z,54.63
2018-11-06T04:20:31.514Z,54.10
2018-11-06T04:23:00.327Z,59.60
2018-11-06T04:25:29.271Z,60.30
2018-11-06T04:27:58.130Z,58.27
2018-11-06T04:30:27.003Z,58.17
2018-11-06T04:32:55.850Z,56.73
2018-11-06T04:35:24.779Z,56.73
2018-11-06T04:37:53.631Z,51.13
2018-11-06T04:40:22.519Z,56.50
2018-11-06T04:42:51.375Z,56.33
2018-11-06T04:45:20.295Z,60.83
2018-11-06T04:47:49.163Z,64.47
2018-11-06T04:50:19.376Z,56.77
2018-11-06T04:52:48.238Z,57.30
2018-11-06T04:55:17.239Z,59.53
2018-11-06T04:57:46.098Z,57.13
2018-11-06T05:00:20.655Z,53.37
2018-11-06T05:02:52.948Z,54.67
2018-11-06T05:05:21.853Z,60.27
2018-11-06T05:07:50.699Z,63.33
2018-11-06T05:10:19.529Z,57.53
2018-11-06T05:12:48.366Z,57.43
2018-11-06T05:15:17.579Z,67.03
2018-11-06T05:17:46.390Z,54.53
2018-11-06T05:20:16.474Z,55.83
2018-11-06T05:22:46.080Z,61.90
2018-11-06T05:25:15.426Z,65.00
2018-11-06T05:27:44.264Z,69.57
2018-11-06T05:30:13.191Z,59.53
2018-11-06T05:32:43.129Z,64.60
2018-11-06T05:35:12.359Z,65.67
2018-11-06T05:37:41.322Z,65.40
2018-11-06T05:40:27.342Z,56.33
2018-11-06T05:42:56.631Z,56.13
2018-11-06T05:45:25.808Z,63.03
2018-11-06T05:47:54.928Z,68.60
2018-11-06T05:50:24.059Z,63.13
2018-11-06T05:52:53.277Z,75.83
2018-11-06T05:55:22.511Z,61.27
2018-11-06T05:57:51.752Z,63.83
2018-11-06T06:00:29.072Z,64.23
2018-11-06T06:02:58.199Z,72.33
2018-11-06T06:05:27.264Z,66.43
2018-11-06T06:07:56.523Z,63.53
2018-11-06T06:10:25.831Z,62.97
2018-11-06T06:12:55.009Z,51.73
2018-11-06T06:15:23.991Z,55.80
2018-11-06T06:17:53.455Z,60.87
2018-11-06T06:20:22.643Z,61.00
2018-11-06T06:22:51.628Z,55.27
2018-11-06T06:25:20.787Z,56.63
2018-11-06T06:27:50.303Z,44.50
2018-11-06T06:30:19.528Z,56.07
2018-11-06T06:32:48.723Z,50.07
2018-11-06T06:35:18.143Z,48.37
2018-11-06T06:37:47.075Z,51.63
2018-11-06T06:40:16.858Z,49.00
2018-11-06T06:42:46.805Z,62.00
2018-11-06T06:45:17.411Z,58.97
2018-11-06T06:47:46.815Z,52.67
2018-11-06T06:50:16.978Z,57.80
2018-11-06T06:52:46.876Z,47.53
2018-11-06T06:55:16.522Z,45.60
2018-11-06T06:57:46.917Z,50.67
2018-11-06T07:00:19.850Z,44.60
2018-11-06T07:02:50.696Z,39.50
2018-11-06T07:05:21.787Z,39.10
2018-11-06T07:07:50.658Z,48.03
2018-11-06T07:10:20.897Z,43.60
2018-11-06T07:12:50.533Z,44.00
2018-11-06T07:15:20.627Z,42.23
2018-11-06T07:17:50.251Z,45.50
2018-11-06T07:20:23.024Z,42.73
2018-11-06T07:22:52.372Z,45.13
2018-11-06T07:25:21.478Z,39.20
2018-11-06T07:27:50.757Z,40.67
2018-11-06T07:30:20.946Z,36.67
2018-11-06T07:32:49.808Z,43.97
2018-11-06T07:35:19.362Z,44.80
2018-11-06T07:37:48.493Z,50.97
2018-11-06T07:40:18.670Z,37.90
2018-11-06T07:42:47.519Z,37.53
2018-11-06T07:45:17.746Z,44.50
2018-11-06T07:47:46.619Z,40.57
2018-11-06T07:50:15.466Z,38.17
2018-11-06T07:52:44.535Z,40.30
2018-11-06T07:55:14.879Z,36.30
2018-11-06T07:57:43.746Z,48.67
2018-11-06T08:00:26.214Z,39.97
2018-11-06T08:02:56.483Z,38.40
2018-11-06T08:05:25.339Z,48.83
2018-11-06T08:07:54.178Z,40.57
2018-11-06T08:10:23.007Z,38.77
2018-11-06T08:12:52.960Z,39.87
2018-11-06T08:15:21.929Z,37.60
2018-11-06T08:17:50.843Z,38.73
2018-11-06T08:20:19.659Z,39.10
2018-11-06T08:22:48.458Z,34.13
2018-11-06T08:25:17.618Z,34.83
2018-11-06T08:27:46.591Z,38.10
2018-11-06T08:30:15.351Z,44.17
2018-11-06T08:32:44.498Z,34.00
2018-11-06T08:35:14.620Z,36.47
2018-11-06T08:37:43.829Z,31.23
2018-11-06T08:40:14.035Z,34.00
2018-11-06T08:42:43.032Z,35.13
2018-11-06T08:45:13.167Z,35.87
2018-11-06T08:47:42.869Z,33.93
2018-11-06T08:50:14.815Z,32.07
2018-11-06T08:52:43.763Z,32.53
2018-11-06T08:55:13.623Z,33.10
2018-11-06T08:57:43.130Z,36.03
2018-11-06T09:00:32.120Z,33.10
2018-11-06T09:03:01.067Z,39.43
2018-11-06T09:05:29.932Z,31.80
2018-11-06T09:07:58.811Z,30.37
2018-11-06T09:10:27.667Z,29.60
2018-11-06T09:12:56.492Z,31.87
2018-11-06T09:15:25.416Z,34.47
2018-11-06T09:17:54.234Z,31.53
2018-11-06T09:20:23.064Z,34.00
2018-11-06T09:22:51.880Z,34.97
2018-11-06T09:25:20.760Z,33.20
2018-11-06T09:27:49.590Z,38.43
2018-11-06T09:30:19.091Z,33.60
2018-11-06T09:32:48.447Z,34.60
2018-11-06T09:35:17.347Z,36.20
2018-11-06T09:37:46.215Z,34.80
2018-11-06T09:40:16.491Z,27.77
2018-11-06T09:42:45.323Z,34.60
2018-11-06T09:45:26.347Z,31.90
2018-11-06T09:47:55.184Z,28.57
2018-11-06T09:50:23.986Z,34.73
2018-11-06T09:52:52.796Z,31.23
2018-11-06T09:55:21.687Z,29.77
2018-11-06T09:57:50.575Z,33.53
2018-11-06T10:00:21.866Z,31.07
2018-11-06T10:02:53.993Z,26.30
2018-11-06T10:05:22.815Z,31.17
2018-11-06T10:07:51.707Z,31.10
2018-11-06T10:10:20.470Z,37.73
2018-11-06T10:12:49.312Z,30.10
2018-11-06T10:15:19.724Z,26.13
2018-11-06T10:17:49.517Z,30.10
2018-11-06T10:20:19.231Z,27.57
2018-11-06T10:22:48.058Z,33.00
2018-11-06T10:25:16.986Z,35.10
2018-11-06T10:27:45.804Z,28.97
2018-11-06T10:30:18.186Z,27.43
2018-11-06T10:32:47.049Z,33.50
2018-11-06T10:35:15.924Z,31.33
2018-11-06T10:37:44.738Z,28.90
2018-11-06T10:40:15.567Z,31.83
2018-11-06T10:42:44.976Z,30.60
2018-11-06T10:45:13.826Z,30.43
2018-11-06T10:47:42.682Z,26.27
2018-11-06T10:50:12.823Z,26.10
2018-11-06T10:52:41.980Z,29.67
2018-11-06T10:55:10.926Z,28.53
2018-11-06T10:57:40.475Z,29.50
2018-11-06T11:00:23.614Z,30.67
2018-11-06T11:03:00.867Z,30.43
2018-11-06T11:05:30.175Z,28.33
2018-11-06T11:07:59.024Z,34.10
2018-11-06T11:10:28.600Z,30.33
2018-11-06T11:12:57.510Z,34.50
2018-11-06T11:15:26.588Z,27.70
2018-11-06T11:17:55.473Z,29.77
2018-11-06T11:20:24.322Z,29.97
2018-11-06T11:22:53.158Z,31.53
2018-11-06T11:25:21.998Z,29.03
2018-11-06T11:27:50.829Z,30.47
2018-11-06T11:30:19.675Z,31.73
2018-11-06T11:32:48.585Z,31.23
2018-11-06T11:35:17.483Z,32.57
2018-11-06T11:37:46.355Z,26.43
2018-11-06T11:40:15.892Z,24.90
2018-11-06T11:42:44.797Z,32.40
2018-11-06T11:45:14.467Z,30.70
2018-11-06T11:47:43.300Z,27.23
2018-11-06T11:50:13.647Z,33.07
2018-11-06T11:52:42.500Z,35.20
2018-11-06T11:55:11.676Z,30.70
2018-11-06T11:57:40.794Z,30.50
2018-11-06T12:00:14.650Z,32.43
2018-11-06T12:02:43.756Z,30.67
2018-11-06T12:05:12.621Z,40.10
2018-11-06T12:07:41.470Z,34.87
2018-11-06T12:10:11.279Z,31.47
2018-11-06T12:12:40.471Z,31.47
2018-11-06T12:15:15.303Z,32.30
2018-11-06T12:17:44.999Z,29.77
2018-11-06T12:20:14.427Z,34.87
2018-11-06T12:22:43.271Z,32.53
2018-11-06T12:25:12.640Z,30.57
2018-11-06T12:27:41.414Z,30.57
2018-11-06T12:30:12.852Z,33.47
2018-11-06T12:32:42.046Z,40.03
2018-11-06T12:35:11.759Z,41.83
2018-11-06T12:37:40.664Z,35.37
2018-11-06T12:40:10.651Z,35.90
2018-11-06T12:42:40.063Z,47.03
2018-11-06T12:45:10.915Z,33.90
2018-11-06T12:47:40.099Z,39.13
2018-11-06T12:50:09.351Z,36.33
2018-11-06T12:52:38.691Z,36.30
2018-11-06T12:55:09.864Z,36.17
2018-11-06T12:57:38.771Z,38.90
2018-11-06T13:00:18.832Z,45.17
2018-11-06T13:02:50.513Z,38.30
2018-11-06T13:05:19.408Z,36.03
2018-11-06T13:07:48.227Z,44.00
2018-11-06T13:10:17.099Z,37.33
2018-11-06T13:12:45.883Z,39.57
2018-11-06T13:15:15.640Z,33.67
2018-11-06T13:17:43.635Z,43.30
2018-11-06T13:20:13.695Z,47.87
2018-11-06T13:22:43.319Z,42.57
2018-11-06T13:25:12.327Z,43.93
2018-11-06T13:27:41.580Z,42.80
2018-11-06T13:30:15.618Z,43.23
2018-11-06T13:32:45.415Z,41.50
2018-11-06T13:35:14.333Z,42.70
2018-11-06T13:37:43.206Z,44.70
2018-11-06T13:40:13.438Z,47.57
2018-11-06T13:42:42.611Z,44.73
2018-11-06T13:45:28.467Z,42.30
2018-11-06T13:47:57.227Z,47.63
2018-11-06T13:50:26.084Z,46.77
2018-11-06T13:52:54.936Z,51.73
2018-11-06T13:55:24.200Z,50.07
2018-11-06T13:57:53.082Z,46.37
2018-11-06T14:00:30.166Z,49.83
2018-11-06T14:02:59.003Z,51.23
2018-11-06T14:05:29.066Z,45.17
2018-11-06T14:07:57.994Z,41.83
2018-11-06T14:10:26.806Z,45.87
2018-11-06T14:12:55.646Z,41.90
2018-11-06T14:15:24.515Z,51.03
2018-11-06T14:17:53.447Z,52.07
2018-11-06T14:20:22.288Z,42.77
2018-11-06T14:22:51.159Z,47.53
2018-11-06T14:25:20.057Z,45.37
2018-11-06T14:27:48.882Z,47.93
2018-11-06T14:30:18.921Z,42.93
2018-11-06T14:32:48.086Z,50.63
2018-11-06T14:35:17.924Z,44.60
2018-11-06T14:37:47.886Z,50.03
2018-11-06T14:40:17.213Z,52.90
2018-11-06T14:42:46.328Z,50.47
2018-11-06T14:45:16.659Z,47.03
2018-11-06T14:47:45.639Z,45.67
2018-11-06T14:50:14.620Z,49.30
2018-11-06T14:52:43.482Z,49.80
2018-11-06T14:55:13.747Z,47.27
2018-11-06T14:57:42.582Z,50.57
2018-11-06T15:03:01.491Z,43.23
2018-11-06T15:05:30.419Z,56.07
2018-11-06T15:07:59.261Z,53.90
2018-11-06T15:10:28.157Z,56.93
2018-11-06T15:12:56.998Z,59.27
2018-11-06T15:15:25.944Z,51.27
2018-11-06T15:17:54.959Z,53.83
2018-11-06T15:20:23.951Z,55.87
2018-11-06T15:22:59.635Z,61.83
2018-11-06T15:25:28.587Z,56.47
2018-11-06T15:27:57.441Z,51.50
2018-11-06T15:30:26.787Z,52.13
2018-11-06T15:32:55.708Z,63.80
2018-11-06T15:35:24.643Z,64.83
2018-11-06T15:37:53.547Z,56.27
2018-11-06T15:40:22.451Z,53.40
2018-11-06T15:42:51.274Z,60.60
2018-11-06T15:45:20.279Z,56.17
2018-11-06T15:47:49.527Z,71.20
2018-11-06T15:50:19.444Z,63.87
2018-11-06T15:52:49.260Z,61.70
2018-11-06T15:55:18.292Z,72.67
2018-11-06T15:57:47.447Z,60.13
2018-11-06T16:00:26.243Z,71.37
2018-11-06T16:02:56.416Z,67.20
2018-11-06T16:05:25.899Z,66.07
2018-11-06T16:07:55.047Z,61.23
2018-11-06T16:10:24.019Z,64.00
2018-11-06T16:12:52.910Z,67.07
2018-11-06T16:15:21.861Z,57.10
2018-11-06T16:17:50.702Z,63.97
2018-11-06T16:20:20.336Z,77.17
2018-11-06T16:22:49.302Z,68.23
2018-11-06T16:25:23.763Z,55.57
2018-11-06T16:27:52.656Z,61.17
2018-11-06T16:30:22.183Z,64.60
2018-11-06T16:32:51.152Z,62.73
2018-11-06T16:35:21.859Z,71.73
2018-11-06T16:37:51.169Z,58.90
2018-11-06T16:40:20.246Z,63.53
2018-11-06T16:42:49.391Z,71.97
2018-11-06T16:45:21.315Z,68.57
2018-11-06T16:47:50.970Z,64.23
2018-11-06T16:50:20.274Z,68.77
2018-11-06T16:52:49.474Z,67.60
2018-11-06T16:55:19.134Z,62.73
2018-11-06T16:57:48.581Z,71.90
2018-11-06T17:00:27.515Z,66.60
2018-11-06T17:02:56.901Z,82.63
2018-11-06T17:05:25.835Z,66.87
2018-11-06T17:07:54.704Z,60.63
2018-11-06T17:10:23.591Z,64.07
2018-11-06T17:12:52.477Z,69.90
2018-11-06T17:15:22.589Z,67.87
2018-11-06T17:17:53.466Z,56.60
2018-11-06T17:20:23.168Z,66.33
2018-11-06T17:22:52.451Z,60.20
2018-11-06T17:25:22.584Z,58.13
2018-11-06T17:27:51.523Z,66.53
2018-11-06T17:30:20.458Z,64.20
2018-11-06T17:32:49.638Z,61.60
2018-11-06T17:35:20.575Z,67.90
2018-11-06T17:37:49.507Z,61.60
2018-11-06T17:40:19.483Z,59.93
2018-11-06T17:42:49.032Z,60.37
2018-11-06T17:45:20.869Z,79.90
2018-11-06T17:47:49.903Z,77.07
2018-11-06T17:50:19.297Z,89.67
2018-11-06T17:52:48.503Z,88.70
2018-11-06T17:55:19.598Z,85.70
2018-11-06T17:57:48.419Z,85.67
2018-11-06T18:00:30.807Z,82.83
2018-11-06T18:02:59.707Z,77.30
2018-11-06T18:05:31.331Z,77.33
2018-11-06T18:08:00.284Z,79.40
2018-11-06T18:10:29.236Z,86.23
2018-11-06T18:12:58.108Z,69.60
2018-11-06T18:15:27.601Z,87.10
2018-11-06T18:17:56.599Z,75.57
2018-11-06T18:20:25.434Z,85.47
2018-11-06T18:22:54.355Z,73.33
2018-11-06T18:25:28.004Z,77.03
2018-11-06T18:27:57.207Z,84.63
2018-11-06T18:30:26.104Z,80.90
2018-11-06T18:32:55.000Z,77.90
2018-11-06T18:35:23.931Z,76.13
2018-11-06T18:37:52.838Z,87.27
2018-11-06T18:40:21.821Z,82.47
2018-11-06T18:42:51.239Z,80.60
2018-11-06T18:45:20.284Z,87.33
2018-11-06T18:47:49.226Z,83.20
2018-11-06T18:50:18.841Z,78.13
2018-11-06T18:52:48.953Z,90.83
2018-11-06T18:55:18.262Z,84.97
2018-11-06T18:57:47.173Z,73.30
2018-11-06T19:00:23.463Z,86.17
2018-11-06T19:02:54.031Z,82.47
2018-11-06T19:05:23.764Z,87.10
2018-11-06T19:07:52.616Z,92.40
2018-11-06T19:10:21.534Z,77.93
2018-11-06T19:12:50.783Z,94.33
2018-11-06T19:15:21.175Z,80.53
2018-11-06T19:17:50.458Z,89.47
2018-11-06T19:20:20.246Z,84.20
2018-11-06T19:22:49.144Z,90.00
2018-11-06T19:25:18.056Z,75.00
2018-11-06T19:27:47.597Z,79.27
2018-11-06T19:30:18.116Z,84.67
2018-11-06T19:32:47.295Z,89.43
2018-11-06T19:35:17.199Z,91.67
2018-11-06T19:37:46.162Z,83.10
2018-11-06T19:40:16.730Z,76.70
2018-11-06T19:42:46.643Z,73.83
2018-11-06T19:45:15.684Z,82.60
2018-11-06T19:47:44.585Z,83.33
2018-11-06T19:50:14.809Z,85.87
2018-11-06T19:52:43.704Z,85.43
2018-11-06T19:55:14.184Z,84.87
2018-11-06T19:57:43.100Z,83.43
2018-11-06T20:00:25.562Z,82.90
2018-11-06T20:02:57.049Z,96.40
2018-11-06T20:05:26.392Z,106.80
2018-11-06T20:07:55.588Z,96.10
2018-11-06T20:10:25.237Z,100.77
2018-11-06T20:12:54.817Z,100.00
2018-11-06T20:15:25.737Z,93.73
2018-11-06T20:17:54.677Z,97.37
2018-11-06T20:20:25.613Z,92.47
2018-11-06T20:22:55.939Z,94.83
2018-11-06T20:25:25.731Z,93.73
2018-11-06T20:27:54.664Z,81.27
2018-11-06T20:30:25.076Z,105.73
2018-11-06T20:32:54.177Z,101.17
2018-11-06T20:35:23.217Z,110.00
2018-11-06T20:37:52.499Z,110.50
2018-11-06T20:40:22.759Z,108.40
2018-11-06T20:42:51.778Z,95.03
2018-11-06T20:45:21.428Z,94.83
2018-11-06T20:47:50.344Z,107.13
2018-11-06T20:50:21.350Z,106.10
2018-11-06T20:52:51.167Z,108.43
2018-11-06T20:55:20.268Z,108.07
2018-11-06T20:57:49.148Z,98.97
2018-11-06T21:00:28.505Z,113.03
2018-11-06T21:02:58.707Z,104.70
2018-11-06T21:05:38.530Z,110.37
2018-11-06T21:08:07.808Z,99.70
2018-11-06T21:10:36.762Z,110.13
2018-11-06T21:13:05.787Z,122.07
2018-11-06T21:15:47.404Z,109.07
2018-11-06T21:18:16.465Z,110.53
2018-11-06T21:20:45.652Z,104.20
2018-11-06T21:23:14.566Z,103.13
2018-11-06T21:25:52.211Z,112.87
2018-11-06T21:28:20.878Z,105.57
2018-11-06T21:30:50.408Z,112.63
2018-11-06T21:33:19.472Z,113.87
2018-11-06T21:35:53.945Z,128.90
2018-11-06T21:38:23.320Z,101.20
2018-11-06T21:40:52.180Z,116.77
2018-11-06T21:43:21.544Z,111.63
2018-11-06T21:45:50.556Z,112.90
2018-11-06T21:48:20.361Z,126.57
2018-11-06T21:50:49.346Z,126.70
2018-11-06T21:53:18.225Z,107.10
2018-11-06T21:55:47.223Z,110.87
2018-11-06T21:58:16.079Z,116.50
2018-11-06T22:00:45.030Z,112.17
2018-11-06T22:03:13.827Z,116.73
2018-11-06T22:05:42.789Z,103.10
2018-11-06T22:08:11.678Z,99.63
2018-11-06T22:10:40.538Z,110.43
2018-11-06T22:13:09.455Z,123.07
2018-11-06T22:15:38.328Z,106.70
2018-11-06T22:18:07.533Z,101.43
2018-11-06T22:20:36.416Z,118.70
2018-11-06T22:23:05.353Z,120.77
2018-11-06T22:25:34.342Z,102.57
2018-11-06T22:28:03.199Z,114.77
2018-11-06T22:30:32.058Z,115.10
2018-11-06T22:33:00.965Z,105.00
2018-11-06T22:35:29.916Z,117.00
2018-11-06T22:37:58.741Z,104.83
2018-11-06T22:40:27.589Z,103.07
2018-11-06T22:42:56.450Z,115.30
2018-11-06T22:45:25.349Z,105.87
2018-11-06T22:47:54.232Z,106.03
2018-11-06T22:50:23.146Z,98.73
2018-11-06T22:52:52.015Z,104.77
2018-11-06T22:55:20.903Z,99.33
2018-11-06T22:57:49.764Z,91.83
2018-11-06T23:00:28.732Z,99.83
2018-11-06T23:02:57.603Z,94.80
2018-11-06T23:05:26.496Z,98.07
2018-11-06T23:08:00.893Z,104.27
2018-11-06T23:10:29.811Z,110.57
2018-11-06T23:12:58.627Z,105.27
2018-11-06T23:15:27.603Z,103.97
2018-11-06T23:17:56.447Z,100.53
2018-11-06T23:20:25.314Z,103.37
2018-11-06T23:22:54.184Z,107.43
2018-11-06T23:25:23.258Z,101.27
2018-11-06T23:27:52.074Z,88.93
2018-11-06T23:30:20.966Z,96.50
2018-11-06T23:32:49.835Z,91.60
2018-11-06T23:35:18.827Z,99.57
2018-11-06T23:37:47.666Z,106.43
2018-11-06T23:40:16.547Z,100.57
2018-11-06T23:42:45.383Z,112.67
2018-11-06T23:45:14.263Z,97.80
2018-11-06T23:47:43.153Z,92.67
2018-11-06T23:50:12.290Z,102.77
2018-11-06T23:52:41.152Z,99.03
2018-11-06T23:55:10.608Z,99.97
2018-11-06T23:57:39.620Z,102.33
